LiveATC.Net - Listen to live air traffic control over the Internet!


ICAO: EINN  IATA: SNN   Airport: Shannon Airport
City: Shannon
Country: Ireland   Continent: Europe
EINN METAR Weather: EINN 041500Z 24013KT 9999 -RADZ FEW009 BKN015 BKN022 17/14 Q1006 TEMPO 4000
EINN Flight Activity (FlightAware)

EINN Twr/App #1
Feed Status: UP   Listeners: 8
Listen in your browser - HTML5 player (in browser, HTML5)
Click here to listen with your own player (launches your MP3 player)
Archive Access: EINN Twr/App #1
FacilityFrequency
Aer Lingus Ops131.500
Service Air Ops131.450
Shannon Approach Radar121.400
Shannon ControlMisc
Shannon Ground121.800
Shannon Tower118.700
Sig Ops (Pre-Clearance)131.590

NOTICE

Unauthorized use prohibited. See LiveATC.net Terms of Service


Airport/ARTCC Code
Frequency Search
(e.g., 124.400, 128.75)
Site-wide search
 


Browse Feeds
Top 50 Feeds
Coverage Map
Bad Weather Areas

LiveATC FAQ
Offer LiveATC feed
Contact LiveATC.net
Press Inquiries

LiveATC on iPhone
LiveATC on Android

Windows Phone
Windows 8/10

LiveATC Mobile
(Mobile browser)

ATC Audio Archives
Interesting Recordings

LiveATC Forums


Home Page
About LiveATC.net
Make a Donation
Terms of Use
Privacy Policy

Canadian Air Freqs

AIRMETs/SIGMETs

FAA Airport Status
Nat'l Airspace Status
Arrival Demand Charts


Server Software By:
Icecast.org
Liquidsoap